createdAt,value
2023-05-19T08:17:45.023Z,48.28
2023-05-19T08:20:14.985Z,47.92
2023-05-19T08:22:44.301Z,48.27
2023-05-19T08:25:14.008Z,48.20
2023-05-19T08:27:43.343Z,48.26
2023-05-19T08:30:13.584Z,48.05
2023-05-19T08:32:42.843Z,48.25
2023-05-19T08:35:14.024Z,48.08
2023-05-19T08:37:43.357Z,48.03
2023-05-19T08:40:13.798Z,47.90
2023-05-19T08:42:43.109Z,47.81
2023-05-19T08:45:12.767Z,47.65
2023-05-19T08:47:43.033Z,47.74
2023-05-19T08:50:14.858Z,47.79
2023-05-19T08:52:49.511Z,47.77
2023-05-19T08:55:26.111Z,47.86
2023-05-19T08:57:55.272Z,47.74
2023-05-19T09:00:24.789Z,48.11
2023-05-19T09:03:00.957Z,47.83
2023-05-19T09:05:42.305Z,47.62
2023-05-19T09:08:11.571Z,47.44
2023-05-19T09:10:41.153Z,47.76
2023-05-19T09:13:10.308Z,47.48
2023-05-19T09:15:40.075Z,47.75
2023-05-19T09:18:09.811Z,47.62
2023-05-19T09:20:40.241Z,47.65
2023-05-19T09:23:13.919Z,47.58
2023-05-19T09:25:49.790Z,47.46
2023-05-19T09:28:24.595Z,47.45
2023-05-19T09:31:00.841Z,47.47
2023-05-19T09:33:30.178Z,47.20
2023-05-19T09:35:59.697Z,47.18
2023-05-19T09:38:30.349Z,47.24
2023-05-19T09:41:00.970Z,47.25
2023-05-19T09:43:30.439Z,47.19
2023-05-19T09:46:04.120Z,47.13
2023-05-19T09:48:33.372Z,47.17
2023-05-19T09:51:02.968Z,47.17
2023-05-19T09:53:34.139Z,46.84
2023-05-19T09:56:04.188Z,47.01
2023-05-19T09:58:34.832Z,47.05
2023-05-19T10:01:04.758Z,47.22
2023-05-19T10:03:34.113Z,47.01
2023-05-19T10:06:04.124Z,47.03
2023-05-19T10:08:36.111Z,47.06
2023-05-19T10:11:07.113Z,46.79
2023-05-19T10:13:36.472Z,47.19
2023-05-19T10:16:06.311Z,47.26
2023-05-19T10:18:36.815Z,47.12
2023-05-19T10:21:07.497Z,47.02
2023-05-19T10:23:38.150Z,46.80
2023-05-19T10:26:07.860Z,46.93
2023-05-19T10:28:39.782Z,47.03
2023-05-19T10:31:09.915Z,46.93
2023-05-19T10:33:41.484Z,46.96
2023-05-19T10:36:14.955Z,46.69
2023-05-19T10:38:48.445Z,46.94
2023-05-19T10:41:19.521Z,46.87
2023-05-19T10:43:53.690Z,46.77
2023-05-19T10:46:25.135Z,46.83
2023-05-19T10:48:54.601Z,46.77
2023-05-19T10:51:29.964Z,46.60
2023-05-19T10:54:02.620Z,46.71
2023-05-19T10:56:34.365Z,46.58
2023-05-19T10:59:03.770Z,46.86
2023-05-19T11:01:33.792Z,46.70
2023-05-19T11:04:06.572Z,47.18
2023-05-19T11:06:37.949Z,46.73
2023-05-19T11:09:17.967Z,46.54
2023-05-19T11:11:48.682Z,46.73
2023-05-19T11:14:18.825Z,46.38
2023-05-19T11:16:48.757Z,46.69
2023-05-19T11:19:21.532Z,46.68
2023-05-19T11:21:52.576Z,46.63
2023-05-19T11:24:42.313Z,46.57
2023-05-19T11:27:27.810Z,46.49
2023-05-19T11:29:57.467Z,46.42
2023-05-19T11:32:27.854Z,46.49
2023-05-19T11:34:57.291Z,46.58
2023-05-19T11:37:26.962Z,46.85
2023-05-19T11:39:57.618Z,46.62
2023-05-19T11:42:27.142Z,46.53
2023-05-19T11:44:56.588Z,46.57
2023-05-19T11:47:26.239Z,46.52
2023-05-19T11:49:56.784Z,46.51
2023-05-19T11:52:27.541Z,46.59
2023-05-19T11:54:58.573Z,46.65
2023-05-19T11:57:28.182Z,46.66
2023-05-19T11:59:57.852Z,46.82
2023-05-19T12:02:28.084Z,46.44
2023-05-19T12:04:57.475Z,46.50
2023-05-19T12:07:27.076Z,46.67
2023-05-19T12:09:56.359Z,46.41
2023-05-19T12:12:27.392Z,46.50
2023-05-19T12:14:57.232Z,46.53
2023-05-19T12:17:26.826Z,46.46
2023-05-19T12:19:56.052Z,46.50
2023-05-19T12:22:25.572Z,46.55
2023-05-19T12:24:54.834Z,46.35
2023-05-19T12:27:26.414Z,46.51
2023-05-19T12:29:57.595Z,46.63
2023-05-19T12:32:27.341Z,46.52
2023-05-19T12:34:57.371Z,46.57
2023-05-19T12:37:27.829Z,46.68
2023-05-19T12:39:57.513Z,46.70
2023-05-19T12:42:31.297Z,46.84
2023-05-19T12:45:03.326Z,46.87
2023-05-19T12:47:35.028Z,46.57
2023-05-19T12:50:05.043Z,46.51
2023-05-19T12:52:35.727Z,47.03
2023-05-19T12:55:07.140Z,46.92
2023-05-19T12:57:37.288Z,46.97
2023-05-19T13:00:10.721Z,47.08
2023-05-19T13:02:55.403Z,47.01
2023-05-19T13:05:24.932Z,46.99
2023-05-19T13:07:55.599Z,46.90
2023-05-19T13:10:27.138Z,46.84
2023-05-19T13:12:57.059Z,47.08
2023-05-19T13:15:28.360Z,47.27
2023-05-19T13:17:58.185Z,47.36
2023-05-19T13:20:28.504Z,47.48
2023-05-19T13:23:02.179Z,47.28
2023-05-19T13:25:31.526Z,47.28
2023-05-19T13:28:01.642Z,47.27
2023-05-19T13:30:32.604Z,47.46
2023-05-19T13:33:02.427Z,47.40
2023-05-19T13:35:37.161Z,47.57
2023-05-19T13:38:08.144Z,47.44
2023-05-19T13:40:37.746Z,47.26
2023-05-19T13:43:08.164Z,47.31
2023-05-19T13:45:39.397Z,47.45
2023-05-19T13:48:09.530Z,47.40
2023-05-19T13:50:38.980Z,47.21
2023-05-19T13:53:08.720Z,47.71
2023-05-19T13:55:38.450Z,47.62
2023-05-19T13:58:11.158Z,47.48
2023-05-19T14:00:42.126Z,47.52
2023-05-19T14:03:11.820Z,47.42
2023-05-19T14:05:41.210Z,47.37
2023-05-19T14:08:11.545Z,47.31
2023-05-19T14:10:42.418Z,47.25
2023-05-19T14:13:31.560Z,47.23
2023-05-19T14:16:03.621Z,47.17
2023-05-19T14:18:33.437Z,47.13
2023-05-19T14:21:02.842Z,46.87
2023-05-19T14:23:33.450Z,46.99
2023-05-19T14:26:03.898Z,46.99
2023-05-19T14:28:33.633Z,46.85
2023-05-19T14:31:04.410Z,47.05
2023-05-19T14:33:35.608Z,47.00
2023-05-19T14:36:05.562Z,47.04
2023-05-19T14:38:35.171Z,47.20
2023-05-19T14:41:04.535Z,47.16
2023-05-19T14:43:34.098Z,47.75
2023-05-19T14:46:04.719Z,47.58
2023-05-19T14:48:34.304Z,47.72
2023-05-19T14:51:03.513Z,47.86
2023-05-19T14:53:33.062Z,47.79
2023-05-19T14:56:02.178Z,47.72
2023-05-19T14:58:31.818Z,47.77
2023-05-19T15:01:01.114Z,47.81
2023-05-19T15:03:32.066Z,47.83
2023-05-19T15:06:01.428Z,47.95
2023-05-19T15:08:30.907Z,48.47
2023-05-19T15:11:00.110Z,47.98
2023-05-19T15:13:30.015Z,47.96
2023-05-19T15:16:12.510Z,48.55
2023-05-19T15:18:47.682Z,48.61
2023-05-19T15:21:16.824Z,48.36
2023-05-19T15:23:46.305Z,48.72
2023-05-19T15:26:15.752Z,49.06
2023-05-19T15:28:45.499Z,49.28
2023-05-19T15:31:14.665Z,49.18
2023-05-19T15:33:44.334Z,49.13
2023-05-19T15:36:16.782Z,48.99
2023-05-19T15:38:46.320Z,48.87
2023-05-19T15:41:15.440Z,49.07
2023-05-19T15:43:46.538Z,49.11
2023-05-19T15:46:16.241Z,49.01
2023-05-19T15:48:45.818Z,48.71
2023-05-19T15:51:16.450Z,48.81
2023-05-19T15:53:46.036Z,48.71
2023-05-19T15:56:15.528Z,48.62
2023-05-19T15:58:45.005Z,48.77
2023-05-19T16:01:14.155Z,48.91
2023-05-19T16:03:44.196Z,48.97
2023-05-19T16:06:13.518Z,49.00
2023-05-19T16:08:44.545Z,48.39
2023-05-19T16:11:14.611Z,48.85
2023-05-19T16:13:44.220Z,48.53
2023-05-19T16:16:13.382Z,48.99
2023-05-19T16:18:44.349Z,48.63
2023-05-19T16:21:13.611Z,48.67
2023-05-19T16:23:44.547Z,49.28
2023-05-19T16:26:13.636Z,49.17
2023-05-19T16:28:43.314Z,48.89
2023-05-19T16:31:12.478Z,48.83
2023-05-19T16:33:42.632Z,48.39
2023-05-19T16:36:11.766Z,48.55
2023-05-19T16:38:41.305Z,48.73
2023-05-19T16:41:13.924Z,48.67
2023-05-19T16:43:43.525Z,48.58
2023-05-19T16:46:14.048Z,48.47
2023-05-19T16:48:43.575Z,49.03
2023-05-19T16:51:12.715Z,48.46
2023-05-19T16:53:42.272Z,48.88
2023-05-19T16:56:11.523Z,48.71
2023-05-19T16:58:42.572Z,48.25
2023-05-19T17:01:12.205Z,48.72
2023-05-19T17:03:41.854Z,48.48
2023-05-19T17:06:11.057Z,48.33
2023-05-19T17:08:40.592Z,48.34
2023-05-19T17:11:09.899Z,48.21
2023-05-19T17:13:39.472Z,48.26
2023-05-19T17:16:10.110Z,48.41
2023-05-19T17:18:39.631Z,48.18
2023-05-19T17:21:08.902Z,48.34
2023-05-19T17:23:38.405Z,48.16
2023-05-19T17:26:07.581Z,48.35
2023-05-19T17:28:37.101Z,48.29
2023-05-19T17:31:12.461Z,48.89
2023-05-19T17:33:41.979Z,48.43
2023-05-19T17:36:11.180Z,48.39
2023-05-19T17:38:42.082Z,48.45
2023-05-19T17:41:11.288Z,48.11
2023-05-19T17:43:41.118Z,48.20
2023-05-19T17:46:11.913Z,48.23
2023-05-19T17:48:41.456Z,47.99
2023-05-19T17:51:11.470Z,48.53
2023-05-19T17:53:41.486Z,48.14
2023-05-19T17:56:12.098Z,48.22
2023-05-19T17:58:41.932Z,48.30
2023-05-19T18:01:12.824Z,48.34
2023-05-19T18:03:43.676Z,48.43
2023-05-19T18:06:13.066Z,48.20
2023-05-19T18:08:43.450Z,48.01
2023-05-19T18:11:16.013Z,47.96
2023-05-19T18:13:45.763Z,48.16
2023-05-19T18:16:16.451Z,48.20
2023-05-19T18:18:50.558Z,48.17
2023-05-19T18:21:20.060Z,48.35
2023-05-19T18:23:49.630Z,48.06
2023-05-19T18:26:18.849Z,48.21
2023-05-19T18:28:48.406Z,48.20
2023-05-19T18:31:20.095Z,48.31
2023-05-19T18:33:50.204Z,48.41
2023-05-19T18:36:19.390Z,48.58
2023-05-19T18:38:48.916Z,48.28
2023-05-19T18:41:18.544Z,48.31
2023-05-19T18:43:48.004Z,48.39
2023-05-19T18:46:19.960Z,48.55
2023-05-19T18:48:50.835Z,48.46
2023-05-19T18:51:21.506Z,48.59
2023-05-19T18:53:51.090Z,48.64
2023-05-19T18:56:26.533Z,48.40
2023-05-19T18:58:56.338Z,48.77
2023-05-19T19:01:27.060Z,48.37
2023-05-19T19:03:56.655Z,48.65
2023-05-19T19:06:25.874Z,48.58
2023-05-19T19:08:55.419Z,48.96
2023-05-19T19:11:24.589Z,48.82
2023-05-19T19:13:55.661Z,48.87
2023-05-19T19:16:26.345Z,48.67
2023-05-19T19:18:56.005Z,48.95
2023-05-19T19:21:25.913Z,48.86
2023-05-19T19:23:55.884Z,48.99
2023-05-19T19:26:26.972Z,48.96
2023-05-19T19:28:56.559Z,48.80
2023-05-19T19:31:28.869Z,49.54
2023-05-19T19:34:03.140Z,49.50
2023-05-19T19:36:32.297Z,50.03
2023-05-19T19:39:01.907Z,49.86
2023-05-19T19:41:31.116Z,49.58
2023-05-19T19:44:00.573Z,49.93
2023-05-19T19:46:31.221Z,49.82
2023-05-19T19:49:01.283Z,49.57
2023-05-19T19:51:31.691Z,50.08
2023-05-19T19:54:01.293Z,49.94
2023-05-19T19:56:30.571Z,49.42
2023-05-19T19:59:00.345Z,49.55
2023-05-19T20:01:31.029Z,49.58
2023-05-19T20:04:01.004Z,49.46
2023-05-19T20:06:31.002Z,49.19
2023-05-19T20:09:00.546Z,49.27
2023-05-19T20:11:29.761Z,49.39
2023-05-19T20:13:59.361Z,49.99
2023-05-19T20:16:28.597Z,49.77
2023-05-19T20:18:59.738Z,49.50
2023-05-19T20:21:29.007Z,49.38
2023-05-19T20:23:58.644Z,49.21
2023-05-19T20:26:29.271Z,49.17
2023-05-19T20:28:59.107Z,48.98
2023-05-19T20:31:28.290Z,48.89
2023-05-19T20:33:59.370Z,49.12
2023-05-19T20:36:32.099Z,48.80
2023-05-19T20:39:01.586Z,49.11
2023-05-19T20:41:30.814Z,49.12
2023-05-19T20:44:00.356Z,49.05
2023-05-19T20:46:29.719Z,48.76
2023-05-19T20:48:59.300Z,48.88
2023-05-19T20:51:28.504Z,49.09
2023-05-19T20:54:00.135Z,49.00
2023-05-19T20:56:29.546Z,49.33
2023-05-19T20:58:59.078Z,49.62
2023-05-19T21:01:29.988Z,49.90
2023-05-19T21:03:59.663Z,49.49
2023-05-19T21:06:28.848Z,49.36
2023-05-19T21:09:03.639Z,50.01
2023-05-19T21:11:32.806Z,49.94
2023-05-19T21:14:04.201Z,49.85
2023-05-19T21:16:34.168Z,49.66
2023-05-19T21:19:03.945Z,49.79
2023-05-19T21:21:33.609Z,49.71
2023-05-19T21:24:04.610Z,49.75
2023-05-19T21:26:33.779Z,49.66
2023-05-19T21:29:03.245Z,49.83
2023-05-19T21:31:32.492Z,49.82
2023-05-19T21:34:02.025Z,49.71
